createdAt,value
2022-08-05T00:00:46.420Z,5.00
2022-08-05T00:03:18.584Z,5.50
2022-08-05T00:06:04.679Z,4.90
2022-08-05T00:08:36.957Z,5.30
2022-08-05T00:11:23.811Z,4.50
2022-08-05T00:13:56.210Z,4.70
2022-08-05T00:16:36.394Z,5.30
2022-08-05T00:19:13.568Z,4.80
2022-08-05T00:21:42.688Z,4.60
2022-08-05T00:24:15.977Z,4.60
2022-08-05T00:29:22.635Z,5.00
2022-08-05T00:32:12.141Z,4.80
2022-08-05T00:35:03.689Z,4.90
2022-08-05T00:37:50.384Z,5.40
2022-08-05T00:40:27.149Z,5.20
2022-08-05T00:43:00.394Z,5.10
2022-08-05T00:45:38.467Z,5.00
2022-08-05T00:48:10.026Z,5.30
2022-08-05T00:50:41.239Z,4.70
2022-08-05T00:54:01.401Z,4.70
2022-08-05T00:55:59.334Z,5.30
2022-08-05T00:58:28.969Z,5.60
2022-08-05T01:00:57.343Z,5.70
2022-08-05T01:03:31.047Z,5.70
2022-08-05T01:06:02.614Z,5.60
2022-08-05T01:08:43.173Z,5.30
2022-08-05T01:11:22.380Z,6.20
2022-08-05T01:14:11.586Z,5.80
2022-08-05T01:17:02.723Z,5.30
2022-08-05T01:20:01.915Z,5.70
2022-08-05T01:22:37.732Z,5.50
2022-08-05T01:25:43.231Z,5.90
2022-08-05T01:28:27.539Z,5.70
2022-08-05T01:33:38.503Z,5.20
2022-08-05T01:38:53.448Z,5.20
2022-08-05T01:41:25.613Z,5.70
2022-08-05T01:43:55.882Z,5.60
2022-08-05T01:46:42.280Z,5.30
2022-08-05T01:49:23.315Z,5.60
2022-08-05T01:52:01.111Z,5.80
2022-08-05T01:54:46.173Z,6.50
2022-08-05T01:58:10.722Z,5.40
2022-08-05T02:00:12.029Z,5.20
2022-08-05T02:02:51.130Z,6.10
2022-08-05T02:05:28.605Z,5.80
2022-08-05T02:08:01.214Z,5.80
2022-08-05T02:10:39.909Z,5.70
2022-08-05T02:13:16.468Z,6.10
2022-08-05T02:15:51.025Z,5.50
2022-08-05T02:18:30.855Z,6.40
2022-08-05T02:21:05.766Z,6.30
2022-08-05T02:23:43.659Z,5.60
2022-08-05T02:26:21.798Z,6.00
2022-08-05T02:28:50.915Z,5.30
2022-08-05T02:31:23.267Z,5.50
2022-08-05T02:33:57.612Z,5.40
2022-08-05T02:36:31.571Z,6.40
2022-08-05T02:39:03.419Z,5.90
2022-08-05T02:41:43.319Z,6.50
2022-08-05T02:44:23.475Z,6.40
2022-08-05T02:46:58.864Z,6.40
2022-08-05T02:49:36.137Z,6.60
2022-08-05T02:52:09.341Z,5.70
2022-08-05T02:54:40.994Z,5.90
2022-08-05T02:58:12.114Z,6.60
2022-08-05T03:00:04.286Z,6.20
2022-08-05T03:02:37.121Z,6.10
2022-08-05T03:05:08.889Z,6.50
2022-08-05T03:07:56.592Z,5.30
2022-08-05T03:10:28.474Z,5.90
2022-08-05T03:15:24.869Z,6.00
2022-08-05T03:17:55.629Z,6.20
2022-08-05T03:20:25.140Z,5.80
2022-08-05T03:22:55.283Z,6.30
2022-08-05T03:25:33.241Z,6.50
2022-08-05T03:28:18.844Z,6.40
2022-08-05T03:30:57.398Z,6.90
2022-08-05T03:33:42.353Z,6.10
2022-08-05T03:36:29.807Z,6.10
2022-08-05T03:39:07.803Z,6.40
2022-08-05T03:41:45.391Z,6.40
2022-08-05T03:44:19.913Z,6.20
2022-08-05T03:46:50.326Z,6.70
2022-08-05T03:49:19.189Z,6.20
2022-08-05T03:52:36.559Z,6.80
2022-08-05T03:55:51.765Z,7.30
2022-08-05T03:57:42.376Z,6.50
2022-08-05T04:00:15.489Z,6.00
2022-08-05T04:02:58.718Z,7.30
2022-08-05T04:05:33.304Z,6.30
2022-08-05T04:08:05.788Z,7.00
2022-08-05T04:10:45.682Z,6.30
2022-08-05T04:13:18.458Z,7.00
2022-08-05T04:16:02.936Z,5.80
2022-08-05T04:18:34.395Z,6.70
2022-08-05T04:21:05.033Z,6.60
2022-08-05T04:24:04.884Z,6.10
2022-08-05T04:26:24.622Z,6.30
2022-08-05T04:28:53.460Z,6.70
2022-08-05T04:31:22.455Z,6.60
2022-08-05T04:34:31.997Z,5.80
2022-08-05T04:36:50.024Z,6.50
2022-08-05T04:39:19.679Z,6.10
2022-08-05T04:41:48.843Z,6.10
2022-08-05T04:44:30.082Z,5.80
2022-08-05T04:47:00.143Z,6.20
2022-08-05T04:50:02.582Z,5.50
2022-08-05T04:52:29.496Z,5.80
2022-08-05T04:55:14.371Z,5.70
2022-08-05T04:57:47.485Z,5.10
2022-08-05T05:00:23.485Z,5.80
2022-08-05T05:02:52.482Z,5.40
2022-08-05T05:05:28.270Z,6.00
2022-08-05T05:08:01.938Z,6.00
2022-08-05T05:10:33.584Z,6.00
2022-08-05T05:13:04.224Z,7.00
2022-08-05T05:15:57.135Z,6.60
2022-08-05T05:18:31.242Z,6.90
2022-08-05T05:21:03.211Z,6.80
2022-08-05T05:24:02.475Z,6.90
2022-08-05T05:26:28.887Z,7.60
2022-08-05T05:29:02.286Z,6.90
2022-08-05T05:34:02.393Z,6.80
2022-08-05T05:36:32.249Z,7.40
2022-08-05T05:39:04.339Z,7.90
2022-08-05T05:41:40.110Z,7.80
2022-08-05T05:44:35.744Z,7.20
2022-08-05T05:47:04.361Z,8.40
2022-08-05T05:49:33.723Z,8.40
2022-08-05T05:52:06.013Z,7.90
2022-08-05T05:57:42.886Z,7.20
2022-08-05T06:00:31.365Z,6.90
2022-08-05T06:03:40.651Z,6.50
2022-08-05T06:06:01.965Z,6.80
2022-08-05T06:08:35.308Z,6.00
2022-08-05T06:11:10.288Z,6.40
2022-08-05T06:13:50.257Z,5.80
2022-08-05T06:16:30.335Z,5.30
2022-08-05T06:19:05.915Z,5.40
2022-08-05T06:21:38.509Z,5.00
2022-08-05T06:24:14.731Z,5.00
2022-08-05T06:26:52.192Z,5.00
2022-08-05T06:29:43.193Z,5.10
2022-08-05T06:32:21.081Z,4.70
2022-08-05T06:34:58.012Z,4.60
2022-08-05T06:37:56.945Z,5.20
2022-08-05T06:40:20.798Z,7.30
2022-08-05T06:42:51.924Z,5.10
2022-08-05T06:45:45.008Z,4.20
2022-08-05T06:48:44.395Z,4.10
2022-08-05T06:51:00.427Z,4.50
2022-08-05T06:53:29.448Z,4.90
2022-08-05T06:56:06.340Z,4.60
2022-08-05T06:58:54.977Z,4.30
2022-08-05T07:01:23.875Z,5.10
2022-08-05T07:04:02.982Z,5.80
2022-08-05T07:06:32.378Z,5.10
2022-08-05T07:09:03.735Z,4.70
2022-08-05T07:11:49.476Z,4.90
2022-08-05T07:14:46.979Z,4.80
2022-08-05T07:18:02.048Z,4.60
2022-08-05T07:20:33.409Z,5.10
2022-08-05T07:23:49.926Z,5.60
2022-08-05T07:26:25.676Z,4.40
2022-08-05T07:31:59.836Z,4.10
2022-08-05T07:34:42.008Z,4.10
2022-08-05T07:37:26.218Z,4.00
2022-08-05T07:40:27.027Z,4.00
2022-08-05T07:43:19.989Z,3.90
2022-08-05T07:45:56.979Z,4.90
2022-08-05T07:49:02.655Z,4.20
2022-08-05T07:56:04.938Z,4.20
2022-08-05T07:58:54.737Z,3.40
2022-08-05T08:01:57.598Z,3.70
2022-08-05T08:04:41.803Z,3.70
2022-08-05T08:07:27.328Z,3.40
2022-08-05T08:10:05.424Z,3.60
2022-08-05T08:12:49.297Z,3.40
2022-08-05T08:15:37.255Z,3.40
2022-08-05T08:18:20.849Z,3.30
2022-08-05T08:21:03.112Z,3.40
2022-08-05T08:26:29.953Z,3.00
2022-08-05T08:29:45.522Z,2.80
2022-08-05T08:32:00.328Z,2.70
2022-08-05T08:34:33.197Z,3.10
2022-08-05T08:45:16.413Z,2.70
2022-08-05T08:46:10.118Z,3.30
2022-08-05T08:49:06.279Z,2.50
2022-08-05T08:54:27.294Z,2.80
2022-08-05T08:57:01.178Z,2.70
2022-08-05T08:59:33.600Z,2.60
2022-08-05T09:02:17.738Z,2.60
2022-08-05T09:05:16.253Z,2.40
2022-08-05T09:07:57.655Z,2.60
2022-08-05T09:10:30.429Z,2.60
2022-08-05T09:13:04.484Z,2.60
2022-08-05T09:15:36.832Z,2.60
2022-08-05T09:18:08.857Z,2.70
2022-08-05T09:20:42.653Z,2.50
2022-08-05T09:23:21.880Z,2.80
2022-08-05T09:26:09.251Z,3.40
2022-08-05T09:28:40.096Z,2.70
2022-08-05T09:31:22.593Z,3.00
2022-08-05T09:34:02.611Z,2.90
2022-08-05T09:36:54.132Z,2.60
2022-08-05T09:43:02.501Z,2.70
2022-08-05T09:46:07.238Z,2.80
2022-08-05T09:49:06.552Z,2.30
2022-08-05T09:51:55.390Z,2.50
2022-08-05T09:54:46.405Z,2.90
2022-08-05T09:57:29.385Z,2.40
2022-08-05T10:00:12.006Z,2.70
2022-08-05T10:02:47.122Z,2.60
2022-08-05T10:05:19.153Z,2.20
2022-08-05T10:08:35.462Z,2.40
2022-08-05T10:10:54.998Z,2.10
2022-08-05T10:13:46.312Z,2.10
2022-08-05T10:16:37.774Z,2.40
2022-08-05T10:19:23.821Z,2.40
2022-08-05T10:22:01.159Z,2.60
2022-08-05T10:24:34.283Z,2.70
2022-08-05T10:27:12.875Z,2.20
2022-08-05T10:30:41.096Z,2.00
2022-08-05T10:32:54.148Z,2.10
2022-08-05T10:35:43.954Z,2.10
2022-08-05T10:38:14.938Z,2.80
2022-08-05T10:40:52.122Z,2.10
2022-08-05T10:43:35.781Z,2.40
2022-08-05T10:46:07.179Z,2.50
2022-08-05T10:48:52.508Z,2.50
2022-08-05T10:51:29.128Z,2.50
2022-08-05T10:54:22.992Z,2.20
2022-08-05T10:56:55.573Z,2.50
2022-08-05T11:00:03.500Z,2.10
2022-08-05T11:02:37.638Z,2.10
2022-08-05T11:05:11.629Z,2.10
2022-08-05T11:08:01.295Z,2.30
2022-08-05T11:10:37.786Z,2.40
2022-08-05T11:13:55.027Z,2.40
2022-08-05T11:16:33.802Z,2.40
2022-08-05T11:20:11.466Z,2.10
2022-08-05T11:22:39.371Z,2.10
2022-08-05T11:26:04.584Z,2.20
2022-08-05T11:28:52.669Z,2.60
2022-08-05T11:31:58.537Z,2.30
2022-08-05T11:34:51.525Z,2.50
2022-08-05T11:38:29.003Z,1.80
2022-08-05T11:41:58.250Z,1.90
2022-08-05T11:44:40.150Z,2.10
2022-08-05T11:47:15.161Z,2.30
2022-08-05T11:52:29.367Z,2.90
2022-08-05T11:55:07.730Z,2.40
2022-08-05T11:58:09.389Z,2.70
2022-08-05T12:00:58.559Z,2.40
2022-08-05T12:03:40.034Z,2.50
2022-08-05T12:06:11.367Z,2.70
2022-08-05T12:08:50.924Z,2.40
2022-08-05T12:11:28.335Z,2.10
2022-08-05T12:14:10.516Z,2.30
2022-08-05T12:16:45.406Z,2.20
2022-08-05T12:20:26.436Z,2.40
2022-08-05T12:22:26.461Z,2.40
2022-08-05T12:24:58.195Z,2.80
2022-08-05T12:27:33.051Z,2.50
2022-08-05T12:30:05.424Z,2.30
2022-08-05T12:32:35.435Z,2.40
2022-08-05T12:37:37.097Z,2.70
2022-08-05T12:40:20.769Z,3.00
2022-08-05T12:42:57.840Z,2.30
2022-08-05T12:45:49.583Z,2.50
2022-08-05T12:48:32.398Z,3.00
2022-08-05T12:52:10.972Z,2.80
2022-08-05T12:54:23.399Z,2.50
2022-08-05T12:56:56.868Z,2.80
2022-08-05T13:00:09.005Z,3.00
2022-08-05T13:02:30.752Z,2.60
2022-08-05T13:05:01.004Z,2.90
2022-08-05T13:07:57.410Z,2.60
2022-08-05T13:10:23.766Z,2.90
2022-08-05T13:12:58.233Z,3.10
2022-08-05T13:15:42.203Z,2.90
2022-08-05T13:18:20.428Z,3.00
2022-08-05T13:20:52.200Z,2.90
2022-08-05T13:23:23.183Z,3.50
2022-08-05T13:25:59.372Z,3.40
2022-08-05T13:28:33.582Z,2.80
2022-08-05T13:31:14.443Z,3.10
2022-08-05T13:34:20.954Z,2.80
2022-08-05T13:36:39.689Z,3.40
2022-08-05T13:39:24.428Z,2.90
2022-08-05T13:42:00.321Z,2.90
2022-08-05T13:44:29.974Z,2.60
2022-08-05T13:47:04.513Z,2.70
2022-08-05T13:49:37.370Z,2.90
2022-08-05T13:52:16.059Z,3.00
2022-08-05T13:54:53.381Z,2.80
2022-08-05T13:57:23.151Z,2.90
2022-08-05T13:59:57.157Z,2.70
2022-08-05T14:02:29.930Z,2.50
2022-08-05T14:05:15.421Z,2.40
2022-08-05T14:08:00.725Z,2.70
2022-08-05T14:10:35.030Z,3.00
2022-08-05T14:13:03.615Z,2.30
2022-08-05T14:16:07.235Z,3.40
2022-08-05T14:18:23.315Z,3.10
2022-08-05T14:20:54.945Z,2.80
2022-08-05T14:23:26.038Z,2.90
2022-08-05T14:25:58.477Z,2.70
2022-08-05T14:28:29.093Z,2.60
2022-08-05T14:30:58.031Z,2.90
2022-08-05T14:33:59.106Z,3.40
2022-08-05T14:36:45.092Z,2.80
2022-08-05T14:39:18.047Z,2.80
2022-08-05T14:42:15.933Z,3.10
2022-08-05T14:44:42.971Z,3.10
2022-08-05T14:47:58.426Z,2.70
2022-08-05T14:50:14.231Z,2.80
2022-08-05T14:52:53.449Z,3.50
2022-08-05T14:55:39.637Z,3.40
2022-08-05T14:58:23.535Z,2.70
2022-08-05T15:01:47.980Z,2.90
2022-08-05T15:04:35.243Z,2.90
2022-08-05T15:08:08.642Z,3.40
2022-08-05T15:10:51.176Z,3.40
2022-08-05T15:13:50.366Z,3.20
2022-08-05T15:16:43.807Z,3.40
2022-08-05T15:23:09.340Z,3.40
2022-08-05T15:25:53.384Z,3.60
2022-08-05T15:28:33.166Z,3.30
2022-08-05T15:31:03.692Z,3.40
2022-08-05T15:36:26.541Z,3.30
2022-08-05T15:40:41.604Z,3.40
2022-08-05T15:41:56.143Z,3.50
2022-08-05T15:44:30.691Z,3.40
2022-08-05T15:47:10.270Z,3.70
2022-08-05T15:49:58.801Z,3.30
2022-08-05T15:52:52.799Z,3.80
2022-08-05T15:55:25.158Z,3.50
2022-08-05T15:58:16.704Z,4.10
2022-08-05T16:00:57.135Z,3.70
2022-08-05T16:03:36.481Z,3.80
2022-08-05T16:06:11.342Z,4.20
2022-08-05T16:08:40.471Z,3.30
2022-08-05T16:11:10.392Z,3.70
2022-08-05T16:13:39.945Z,4.20
2022-08-05T16:16:15.900Z,4.10
2022-08-05T16:19:03.233Z,3.40
2022-08-05T16:21:58.928Z,3.50
2022-08-05T16:24:40.129Z,4.10
2022-08-05T16:27:16.101Z,3.50
2022-08-05T16:29:50.850Z,3.50
2022-08-05T16:32:23.452Z,4.20
2022-08-05T16:34:58.679Z,3.90
2022-08-05T16:38:15.171Z,3.60
2022-08-05T16:40:25.125Z,3.80
2022-08-05T16:43:00.437Z,3.20
2022-08-05T16:46:04.753Z,4.00
2022-08-05T16:48:33.405Z,4.10
2022-08-05T16:51:09.762Z,3.90
2022-08-05T16:54:02.811Z,4.30
2022-08-05T16:56:30.384Z,3.60
2022-08-05T16:59:00.980Z,3.70
2022-08-05T17:01:53.937Z,3.60
2022-08-05T17:04:26.441Z,4.10
2022-08-05T17:06:55.935Z,4.20
2022-08-05T17:09:27.392Z,4.30
2022-08-05T17:11:59.625Z,4.00
2022-08-05T17:14:37.663Z,4.50
2022-08-05T17:17:09.417Z,3.90
2022-08-05T17:19:45.986Z,4.10
2022-08-05T17:22:25.595Z,4.10
2022-08-05T17:24:58.773Z,4.00
2022-08-05T17:27:33.288Z,4.40
2022-08-05T17:30:03.300Z,4.20
2022-08-05T17:32:33.787Z,3.90
2022-08-05T17:35:03.388Z,4.60
2022-08-05T17:37:40.066Z,4.70
2022-08-05T17:40:13.559Z,4.50
2022-08-05T17:42:50.586Z,4.40
2022-08-05T17:45:22.152Z,4.70
2022-08-05T17:47:56.033Z,5.20
2022-08-05T17:50:28.587Z,5.60
2022-08-05T17:53:14.208Z,5.50
2022-08-05T17:55:43.568Z,5.60
2022-08-05T17:58:16.375Z,5.10
2022-08-05T18:00:51.140Z,5.40
2022-08-05T18:06:42.295Z,4.80
2022-08-05T18:10:00.480Z,5.70
2022-08-05T18:13:48.098Z,5.40
2022-08-05T18:17:59.553Z,5.70
2022-08-05T18:20:29.341Z,5.10
2022-08-05T18:23:11.408Z,5.80
2022-08-05T18:25:44.766Z,5.60
2022-08-05T18:28:21.859Z,6.30
2022-08-05T18:30:54.146Z,6.40
2022-08-05T18:33:46.678Z,6.70
2022-08-05T18:36:19.483Z,5.90
2022-08-05T18:38:50.402Z,6.10
2022-08-05T18:41:58.533Z,5.80
2022-08-05T18:44:14.619Z,6.70
2022-08-05T18:47:05.106Z,6.00
2022-08-05T18:49:58.211Z,6.00
2022-08-05T18:52:35.887Z,5.90
2022-08-05T18:55:10.963Z,6.50
2022-08-05T18:57:43.129Z,6.00
2022-08-05T19:00:20.393Z,6.00
2022-08-05T19:02:52.875Z,6.10
2022-08-05T19:06:13.218Z,6.60
2022-08-05T19:08:15.360Z,7.50
2022-08-05T19:10:50.680Z,7.20
2022-08-05T19:13:20.156Z,6.90
2022-08-05T19:16:00.236Z,6.90
2022-08-05T19:18:37.551Z,6.80
2022-08-05T19:21:13.442Z,7.10
2022-08-05T19:24:05.997Z,6.70
2022-08-05T19:26:34.509Z,7.50
2022-08-05T19:29:10.591Z,6.70
2022-08-05T19:31:50.990Z,6.80
2022-08-05T19:34:27.502Z,7.90
2022-08-05T19:37:02.495Z,8.10
2022-08-05T19:39:45.958Z,8.00
2022-08-05T19:42:36.058Z,9.20
2022-08-05T19:45:14.623Z,8.00
2022-08-05T19:47:44.762Z,8.90
2022-08-05T19:50:15.735Z,9.30
2022-08-05T19:52:47.627Z,8.40
2022-08-05T19:56:14.630Z,8.80
2022-08-05T19:58:28.797Z,8.70
2022-08-05T20:01:01.055Z,9.70
2022-08-05T20:03:42.195Z,8.80
2022-08-05T20:06:28.832Z,9.70
2022-08-05T20:09:13.739Z,9.10
2022-08-05T20:11:48.320Z,8.80
2022-08-05T20:14:27.151Z,9.40
2022-08-05T20:17:01.833Z,9.90
2022-08-05T20:19:36.182Z,9.70
2022-08-05T20:22:12.578Z,9.80
2022-08-05T20:24:41.475Z,10.00
2022-08-05T20:27:15.880Z,10.40
2022-08-05T20:29:57.436Z,10.30
2022-08-05T20:32:38.081Z,10.40
2022-08-05T20:35:26.427Z,10.30
2022-08-05T20:38:07.714Z,10.20
2022-08-05T20:40:37.595Z,10.70
2022-08-05T20:43:11.984Z,10.20
2022-08-05T20:45:55.953Z,10.50
2022-08-05T20:48:25.626Z,11.20
2022-08-05T20:50:54.485Z,10.20
2022-08-05T20:53:36.961Z,11.40
2022-08-05T20:56:09.871Z,11.30
2022-08-05T20:58:38.393Z,12.00
2022-08-05T21:01:07.128Z,11.30
2022-08-05T21:03:36.533Z,11.30
2022-08-05T21:06:27.792Z,11.00
2022-08-05T21:08:57.606Z,10.80
2022-08-05T21:12:09.747Z,10.30
2022-08-05T21:14:18.660Z,10.60
2022-08-05T21:16:47.266Z,11.20
2022-08-05T21:19:15.610Z,10.60
2022-08-05T21:21:51.005Z,11.10
2022-08-05T21:24:23.746Z,11.50
2022-08-05T21:26:57.928Z,10.80
2022-08-05T21:29:32.033Z,11.40
2022-08-05T21:32:05.786Z,11.40
2022-08-05T21:34:35.442Z,11.90
2022-08-05T21:37:08.360Z,11.20
2022-08-05T21:39:40.675Z,11.10
2022-08-05T21:42:30.729Z,13.00
2022-08-05T21:44:59.806Z,11.30
2022-08-05T21:47:56.698Z,12.20
2022-08-05T21:50:18.491Z,11.20
2022-08-05T21:52:48.326Z,11.50
2022-08-05T21:55:18.475Z,11.40
2022-08-05T21:58:10.546Z,11.30
2022-08-05T22:03:14.202Z,12.90
2022-08-05T22:05:48.464Z,13.10
2022-08-05T22:08:22.193Z,11.60
2022-08-05T22:10:53.335Z,12.30
2022-08-05T22:14:34.437Z,11.50
2022-08-05T22:16:39.124Z,12.50
2022-08-05T22:19:00.040Z,11.80
2022-08-05T22:21:30.398Z,12.10
2022-08-05T22:24:40.259Z,12.00
2022-08-05T22:27:24.195Z,11.40
2022-08-05T22:30:14.563Z,12.20
2022-08-05T22:32:45.651Z,12.00
2022-08-05T22:35:14.631Z,11.80
2022-08-05T22:37:58.928Z,11.70
2022-08-05T22:40:28.262Z,12.60
2022-08-05T22:42:59.355Z,11.70
2022-08-05T22:45:28.141Z,12.00
2022-08-05T22:47:59.100Z,12.20
2022-08-05T22:50:27.745Z,12.00
2022-08-05T22:52:56.452Z,11.60
2022-08-05T22:55:26.072Z,11.60
2022-08-05T22:57:55.016Z,11.50
2022-08-05T23:00:23.964Z,12.00
2022-08-05T23:02:53.327Z,12.20
2022-08-05T23:05:22.586Z,13.10
2022-08-05T23:07:51.617Z,11.40
2022-08-05T23:10:23.840Z,11.30
2022-08-05T23:12:54.413Z,10.90
2022-08-05T23:15:29.650Z,10.20
2022-08-05T23:18:05.864Z,11.20
2022-08-05T23:20:40.025Z,10.70
2022-08-05T23:23:11.365Z,11.70
2022-08-05T23:25:50.962Z,11.20
2022-08-05T23:28:22.546Z,11.30
2022-08-05T23:30:53.435Z,11.10
2022-08-05T23:33:26.203Z,10.90
2022-08-05T23:36:13.575Z,12.20
2022-08-05T23:38:43.411Z,12.60
2022-08-05T23:41:12.828Z,10.90
2022-08-05T23:44:05.275Z,11.00
2022-08-05T23:46:29.836Z,11.80
2022-08-05T23:49:00.277Z,11.70
2022-08-05T23:51:52.495Z,10.70
2022-08-05T23:54:26.084Z,11.40
2022-08-05T23:57:03.156Z,11.90
